sensor_id;sensor_type;location;lat;lon;timestamp;pressure;altitude;pressure_sealevel;temperature;humidity
19789;BME280;10054;59.332;18.244;2023-04-29T00:00:52;100945.28;;;1.94;100.00
19789;BME280;10054;59.332;18.244;2023-04-29T00:03:21;100940.15;;;1.91;100.00
19789;BME280;10054;59.332;18.244;2023-04-29T00:05:49;100934.60;;;1.87;100.00
19789;BME280;10054;59.332;18.244;2023-04-29T00:08:18;100932.13;;;1.81;100.00
19789;BME280;10054;59.332;18.244;2023-04-29T00:10:47;100936.13;;;1.76;100.00
19789;BME280;10054;59.332;18.244;2023-04-29T00:13:16;100932.33;;;1.72;100.00
19789;BME280;10054;59.332;18.244;2023-04-29T00:15:45;100924.97;;;1.71;100.00
19789;BME280;10054;59.332;18.244;2023-04-29T00:18:15;100929.34;;;1.69;100.00
19789;BME280;10054;59.332;18.244;2023-04-29T00:20:44;100922.47;;;1.67;100.00
19789;BME280;10054;59.332;18.244;2023-04-29T00:23:12;100926.40;;;1.65;100.00
19789;BME280;10054;59.332;18.244;2023-04-29T00:25:41;100927.77;;;1.62;100.00
19789;BME280;10054;59.332;18.244;2023-04-29T00:28:10;100925.20;;;1.60;100.00
19789;BME280;10054;59.332;18.244;2023-04-29T00:30:39;100926.97;;;1.58;100.00
19789;BME280;10054;59.332;18.244;2023-04-29T00:33:08;100922.28;;;1.55;100.00
19789;BME280;10054;59.332;18.244;2023-04-29T00:35:37;100923.64;;;1.52;100.00
19789;BME280;10054;59.332;18.244;2023-04-29T00:38:06;100921.96;;;1.49;100.00
19789;BME280;10054;59.332;18.244;2023-04-29T00:40:36;100926.78;;;1.48;100.00
19789;BME280;10054;59.332;18.244;2023-04-29T00:43:05;100926.37;;;1.47;100.00
19789;BME280;10054;59.332;18.244;2023-04-29T00:45:33;100924.24;;;1.45;100.00
19789;BME280;10054;59.332;18.244;2023-04-29T00:48:02;100928.27;;;1.39;100.00
19789;BME280;10054;59.332;18.244;2023-04-29T00:50:31;100926.11;;;1.39;100.00
19789;BME280;10054;59.332;18.244;2023-04-29T00:53:01;100924.69;;;1.45;100.00
19789;BME280;10054;59.332;18.244;2023-04-29T00:55:31;100921.33;;;1.40;100.00
19789;BME280;10054;59.332;18.244;2023-04-29T00:58:00;100925.66;;;1.39;100.00
19789;BME280;10054;59.332;18.244;2023-04-29T01:00:30;100922.68;;;1.37;100.00
19789;BME280;10054;59.332;18.244;2023-04-29T01:03:01;100923.56;;;1.36;100.00
19789;BME280;10054;59.332;18.244;2023-04-29T01:05:30;100921.00;;;1.34;100.00
19789;BME280;10054;59.332;18.244;2023-04-29T01:08:28;100918.84;;;1.34;100.00
19789;BME280;10054;59.332;18.244;2023-04-29T01:11:10;100921.91;;;1.31;100.00
19789;BME280;10054;59.332;18.244;2023-04-29T01:13:49;100921.98;;;1.28;100.00
19789;BME280;10054;59.332;18.244;2023-04-29T01:19:04;100922.45;;;1.26;100.00
19789;BME280;10054;59.332;18.244;2023-04-29T01:21:44;100917.75;;;1.23;100.00
19789;BME280;10054;59.332;18.244;2023-04-29T01:24:06;100919.55;;;1.19;100.00
19789;BME280;10054;59.332;18.244;2023-04-29T01:26:35;100920.86;;;1.19;100.00
19789;BME280;10054;59.332;18.244;2023-04-29T01:29:27;100916.16;;;1.16;100.00
19789;BME280;10054;59.332;18.244;2023-04-29T01:35:07;100919.64;;;1.15;100.00
19789;BME280;10054;59.332;18.244;2023-04-29T01:37:48;100907.53;;;1.14;100.00
19789;BME280;10054;59.332;18.244;2023-04-29T01:43:00;100908.92;;;1.09;100.00
19789;BME280;10054;59.332;18.244;2023-04-29T01:45:31;100906.80;;;1.07;100.00
19789;BME280;10054;59.332;18.244;2023-04-29T01:48:01;100905.50;;;1.07;100.00
19789;BME280;10054;59.332;18.244;2023-04-29T01:50:31;100906.83;;;1.06;100.00
19789;BME280;10054;59.332;18.244;2023-04-29T01:53:02;100903.78;;;1.06;100.00
19789;BME280;10054;59.332;18.244;2023-04-29T01:55:31;100902.52;;;1.05;100.00
19789;BME280;10054;59.332;18.244;2023-04-29T01:58:20;100899.09;;;1.03;100.00
19789;BME280;10054;59.332;18.244;2023-04-29T02:01:00;100895.25;;;0.99;100.00
19789;BME280;10054;59.332;18.244;2023-04-29T02:03:30;100891.80;;;0.99;100.00
19789;BME280;10054;59.332;18.244;2023-04-29T02:06:00;100890.50;;;0.99;100.00
19789;BME280;10054;59.332;18.244;2023-04-29T02:08:29;100889.61;;;1.00;100.00
19789;BME280;10054;59.332;18.244;2023-04-29T02:10:58;100893.04;;;1.02;100.00
19789;BME280;10054;59.332;18.244;2023-04-29T02:13:32;100882.27;;;0.99;100.00
19789;BME280;10054;59.332;18.244;2023-04-29T02:16:12;100880.11;;;0.99;100.00
19789;BME280;10054;59.332;18.244;2023-04-29T02:18:55;100877.98;;;0.97;100.00
19789;BME280;10054;59.332;18.244;2023-04-29T02:21:24;100874.53;;;0.96;100.00
19789;BME280;10054;59.332;18.244;2023-04-29T02:23:53;100877.54;;;0.97;100.00
19789;BME280;10054;59.332;18.244;2023-04-29T02:26:24;100870.19;;;0.97;100.00
19789;BME280;10054;59.332;18.244;2023-04-29T02:28:54;100868.86;;;0.98;100.00
19789;BME280;10054;59.332;18.244;2023-04-29T02:31:24;100864.55;;;0.97;100.00
19789;BME280;10054;59.332;18.244;2023-04-29T02:33:53;100865.02;;;0.95;100.00
19789;BME280;10054;59.332;18.244;2023-04-29T02:36:23;100863.81;;;0.91;100.00
19789;BME280;10054;59.332;18.244;2023-04-29T02:38:52;100864.25;;;0.90;100.00
19789;BME280;10054;59.332;18.244;2023-04-29T02:41:23;100863.40;;;0.90;100.00
19789;BME280;10054;59.332;18.244;2023-04-29T02:43:52;100864.28;;;0.89;100.00
19789;BME280;10054;59.332;18.244;2023-04-29T02:46:21;100853.04;;;0.88;100.00
19789;BME280;10054;59.332;18.244;2023-04-29T02:48:49;100847.41;;;0.89;100.00
19789;BME280;10054;59.332;18.244;2023-04-29T02:51:19;100845.66;;;0.89;100.00
19789;BME280;10054;59.332;18.244;2023-04-29T02:53:48;100846.10;;;0.89;100.00
19789;BME280;10054;59.332;18.244;2023-04-29T02:56:16;100845.19;;;0.91;100.00
19789;BME280;10054;59.332;18.244;2023-04-29T02:58:45;100846.10;;;0.89;100.00
19789;BME280;10054;59.332;18.244;2023-04-29T03:01:15;100846.16;;;0.86;100.00
19789;BME280;10054;59.332;18.244;2023-04-29T03:03:43;100847.88;;;0.87;100.00
19789;BME280;10054;59.332;18.244;2023-04-29T03:06:13;100840.50;;;0.88;100.00
19789;BME280;10054;59.332;18.244;2023-04-29T03:08:42;100844.75;;;0.92;100.00
19789;BME280;10054;59.332;18.244;2023-04-29T03:11:11;100840.34;;;0.95;100.00
19789;BME280;10054;59.332;18.244;2023-04-29T03:13:41;100841.94;;;1.03;100.00
19789;BME280;10054;59.332;18.244;2023-04-29T03:16:10;100840.96;;;1.08;100.00
19789;BME280;10054;59.332;18.244;2023-04-29T03:18:40;100845.72;;;1.29;100.00
19789;BME280;10054;59.332;18.244;2023-04-29T03:21:09;100844.16;;;1.42;100.00
19789;BME280;10054;59.332;18.244;2023-04-29T03:23:38;100831.55;;;1.44;100.00
19789;BME280;10054;59.332;18.244;2023-04-29T03:26:08;100827.17;;;1.46;100.00
19789;BME280;10054;59.332;18.244;2023-04-29T03:28:37;100830.49;;;1.51;100.00
19789;BME280;10054;59.332;18.244;2023-04-29T03:31:05;100830.80;;;1.57;100.00
19789;BME280;10054;59.332;18.244;2023-04-29T03:33:35;100831.11;;;1.62;100.00
19789;BME280;10054;59.332;18.244;2023-04-29T03:36:04;100828.38;;;1.69;100.00
19789;BME280;10054;59.332;18.244;2023-04-29T03:38:37;100828.61;;;1.77;100.00
19789;BME280;10054;59.332;18.244;2023-04-29T03:41:06;100826.23;;;1.86;100.00
19789;BME280;10054;59.332;18.244;2023-04-29T03:43:36;100826.06;;;1.93;100.00
19789;BME280;10054;59.332;18.244;2023-04-29T03:46:05;100824.58;;;2.01;100.00
19789;BME280;10054;59.332;18.244;2023-04-29T03:48:34;100826.10;;;2.10;100.00
19789;BME280;10054;59.332;18.244;2023-04-29T03:51:04;100829.30;;;2.21;100.00
19789;BME280;10054;59.332;18.244;2023-04-29T03:53:33;100826.06;;;2.27;100.00
19789;BME280;10054;59.332;18.244;2023-04-29T03:56:04;100828.02;;;2.36;100.00
19789;BME280;10054;59.332;18.244;2023-04-29T03:58:33;100822.95;;;2.47;100.00
19789;BME280;10054;59.332;18.244;2023-04-29T04:01:02;100813.15;;;2.57;100.00
19789;BME280;10054;59.332;18.244;2023-04-29T04:03:32;100810.22;;;2.69;100.00
19789;BME280;10054;59.332;18.244;2023-04-29T04:06:02;100812.08;;;2.80;100.00
19789;BME280;10054;59.332;18.244;2023-04-29T04:08:31;100804.87;;;2.90;100.00
19789;BME280;10054;59.332;18.244;2023-04-29T04:11:05;100804.78;;;2.93;100.00
19789;BME280;10054;59.332;18.244;2023-04-29T04:13:42;100806.33;;;2.98;100.00
19789;BME280;10054;59.332;18.244;2023-04-29T04:16:12;100798.73;;;3.06;100.00
19789;BME280;10054;59.332;18.244;2023-04-29T04:18:41;100800.72;;;3.12;100.00
19789;BME280;10054;59.332;18.244;2023-04-29T04:21:10;100801.62;;;3.26;100.00
19789;BME280;10054;59.332;18.244;2023-04-29T04:23:41;100794.58;;;3.57;100.00
19789;BME280;10054;59.332;18.244;2023-04-29T04:26:12;100800.67;;;3.98;100.00
19789;BME280;10054;59.332;18.244;2023-04-29T04:29:01;100797.70;;;4.35;100.00
19789;BME280;10054;59.332;18.244;2023-04-29T04:31:34;100792.59;;;4.80;100.00
19789;BME280;10054;59.332;18.244;2023-04-29T04:34:03;100790.19;;;5.20;100.00
19789;BME280;10054;59.332;18.244;2023-04-29T04:36:32;100793.63;;;5.56;100.00
19789;BME280;10054;59.332;18.244;2023-04-29T04:39:02;100791.92;;;5.77;100.00
19789;BME280;10054;59.332;18.244;2023-04-29T04:41:31;100789.87;;;5.95;98.82
19789;BME280;10054;59.332;18.244;2023-04-29T04:44:00;100790.44;;;6.13;97.63
19789;BME280;10054;59.332;18.244;2023-04-29T04:46:31;100789.92;;;6.25;95.12
19789;BME280;10054;59.332;18.244;2023-04-29T04:49:01;100791.18;;;6.37;96.39
19789;BME280;10054;59.332;18.244;2023-04-29T04:51:32;100788.95;;;6.38;94.30
19789;BME280;10054;59.332;18.244;2023-04-29T04:54:01;100792.67;;;6.22;94.45
19789;BME280;10054;59.332;18.244;2023-04-29T04:56:30;100786.77;;;6.07;96.00
19789;BME280;10054;59.332;18.244;2023-04-29T04:58:59;100785.59;;;5.94;96.60
19789;BME280;10054;59.332;18.244;2023-04-29T05:01:28;100782.19;;;5.80;96.85
19789;BME280;10054;59.332;18.244;2023-04-29T05:03:56;100784.05;;;5.67;98.95
19789;BME280;10054;59.332;18.244;2023-04-29T05:06:25;100779.39;;;5.63;100.00
19789;BME280;10054;59.332;18.244;2023-04-29T05:08:54;100782.52;;;5.61;100.00
19789;BME280;10054;59.332;18.244;2023-04-29T05:11:23;100780.94;;;5.57;100.00
19789;BME280;10054;59.332;18.244;2023-04-29T05:14:03;100769.73;;;5.53;100.00
19789;BME280;10054;59.332;18.244;2023-04-29T05:16:32;100769.06;;;5.48;100.00
19789;BME280;10054;59.332;18.244;2023-04-29T05:19:01;100763.95;;;5.45;100.00
19789;BME280;10054;59.332;18.244;2023-04-29T05:21:32;100762.52;;;5.48;100.00
19789;BME280;10054;59.332;18.244;2023-04-29T05:24:00;100756.31;;;5.51;100.00
19789;BME280;10054;59.332;18.244;2023-04-29T05:26:29;100765.41;;;5.52;100.00
19789;BME280;10054;59.332;18.244;2023-04-29T05:29:00;100760.00;;;5.57;100.00
19789;BME280;10054;59.332;18.244;2023-04-29T05:31:30;100758.57;;;5.60;100.00
19789;BME280;10054;59.332;18.244;2023-04-29T05:34:01;100752.94;;;5.59;100.00
19789;BME280;10054;59.332;18.244;2023-04-29T05:36:30;100754.59;;;5.61;100.00
19789;BME280;10054;59.332;18.244;2023-04-29T05:39:01;100750.47;;;5.66;100.00
19789;BME280;10054;59.332;18.244;2023-04-29T05:41:30;100746.77;;;5.72;100.00
19789;BME280;10054;59.332;18.244;2023-04-29T05:44:09;100740.17;;;5.83;100.00
19789;BME280;10054;59.332;18.244;2023-04-29T05:46:38;100738.96;;;6.02;100.00
19789;BME280;10054;59.332;18.244;2023-04-29T05:49:07;100728.10;;;6.21;100.00
19789;BME280;10054;59.332;18.244;2023-04-29T05:51:36;100728.03;;;6.33;100.00
19789;BME280;10054;59.332;18.244;2023-04-29T05:54:05;100719.64;;;6.45;100.00
19789;BME280;10054;59.332;18.244;2023-04-29T05:56:34;100715.63;;;6.57;99.18
19789;BME280;10054;59.332;18.244;2023-04-29T05:59:02;100713.06;;;6.66;98.94
19789;BME280;10054;59.332;18.244;2023-04-29T06:01:31;100712.61;;;6.75;98.37
19789;BME280;10054;59.332;18.244;2023-04-29T06:04:00;100708.33;;;6.82;96.89
19789;BME280;10054;59.332;18.244;2023-04-29T06:06:49;100708.72;;;6.83;95.88
19789;BME280;10054;59.332;18.244;2023-04-29T06:09:22;100701.96;;;6.88;96.61
19789;BME280;10054;59.332;18.244;2023-04-29T06:11:53;100703.06;;;6.92;95.31
19789;BME280;10054;59.332;18.244;2023-04-29T06:14:22;100708.37;;;6.91;95.02
19789;BME280;10054;59.332;18.244;2023-04-29T06:16:52;100704.69;;;6.95;95.02
19789;BME280;10054;59.332;18.244;2023-04-29T06:19:21;100707.25;;;6.97;94.88
19789;BME280;10054;59.332;18.244;2023-04-29T06:21:52;100703.23;;;6.98;94.48
19789;BME280;10054;59.332;18.244;2023-04-29T06:24:21;100704.87;;;7.01;94.81
19789;BME280;10054;59.332;18.244;2023-04-29T06:26:50;100701.78;;;7.01;93.54
19789;BME280;10054;59.332;18.244;2023-04-29T06:29:19;100701.33;;;7.02;92.41
19789;BME280;10054;59.332;18.244;2023-04-29T06:31:48;100691.93;;;7.06;93.48
19789;BME280;10054;59.332;18.244;2023-04-29T06:34:17;100690.80;;;7.12;92.74
19789;BME280;10054;59.332;18.244;2023-04-29T06:36:47;100697.59;;;7.16;92.21
19789;BME280;10054;59.332;18.244;2023-04-29T06:39:24;100696.84;;;7.22;92.40
19789;BME280;10054;59.332;18.244;2023-04-29T06:42:03;100690.84;;;7.29;91.56
19789;BME280;10054;59.332;18.244;2023-04-29T06:44:45;100688.92;;;7.33;90.76
19789;BME280;10054;59.332;18.244;2023-04-29T06:47:31;100684.09;;;7.42;90.82
19789;BME280;10054;59.332;18.244;2023-04-29T06:50:13;100680.69;;;7.66;90.46
19789;BME280;10054;59.332;18.244;2023-04-29T06:52:44;100677.31;;;7.90;88.66
19789;BME280;10054;59.332;18.244;2023-04-29T06:55:12;100676.30;;;8.10;87.09
19789;BME280;10054;59.332;18.244;2023-04-29T06:57:42;100670.91;;;8.29;85.33
19789;BME280;10054;59.332;18.244;2023-04-29T07:00:13;100675.34;;;8.37;85.13
19789;BME280;10054;59.332;18.244;2023-04-29T07:02:42;100674.99;;;8.51;85.85
19789;BME280;10054;59.332;18.244;2023-04-29T07:05:11;100663.52;;;8.61;84.05
19789;BME280;10054;59.332;18.244;2023-04-29T07:07:42;100669.55;;;8.63;83.41
19789;BME280;10054;59.332;18.244;2023-04-29T07:10:10;100669.84;;;8.66;81.90
19789;BME280;10054;59.332;18.244;2023-04-29T07:12:39;100669.38;;;8.66;82.29
19789;BME280;10054;59.332;18.244;2023-04-29T07:15:08;100667.52;;;8.68;82.39
19789;BME280;10054;59.332;18.244;2023-04-29T07:17:38;100666.97;;;8.70;82.40
19789;BME280;10054;59.332;18.244;2023-04-29T07:20:09;100661.52;;;8.82;83.49
19789;BME280;10054;59.332;18.244;2023-04-29T07:22:37;100659.62;;;9.00;81.75
19789;BME280;10054;59.332;18.244;2023-04-29T07:25:07;100663.23;;;9.21;81.19
19789;BME280;10054;59.332;18.244;2023-04-29T07:27:37;100664.27;;;9.42;78.51
19789;BME280;10054;59.332;18.244;2023-04-29T07:30:06;100659.82;;;9.58;77.08
19789;BME280;10054;59.332;18.244;2023-04-29T07:32:35;100652.67;;;9.67;74.93
19789;BME280;10054;59.332;18.244;2023-04-29T07:35:05;100645.28;;;9.81;73.54
19789;BME280;10054;59.332;18.244;2023-04-29T07:37:35;100647.95;;;9.95;73.71
19789;BME280;10054;59.332;18.244;2023-04-29T07:40:05;100641.95;;;10.07;72.75
19789;BME280;10054;59.332;18.244;2023-04-29T07:42:34;100642.72;;;10.16;71.62
19789;BME280;10054;59.332;18.244;2023-04-29T07:45:05;100642.48;;;10.28;70.91
19789;BME280;10054;59.332;18.244;2023-04-29T07:47:34;100648.51;;;10.37;69.98
19789;BME280;10054;59.332;18.244;2023-04-29T07:50:03;100638.59;;;10.41;67.94
19789;BME280;10054;59.332;18.244;2023-04-29T07:52:32;100638.88;;;10.43;67.26
19789;BME280;10054;59.332;18.244;2023-04-29T07:55:02;100634.06;;;10.43;66.93
19789;BME280;10054;59.332;18.244;2023-04-29T07:57:30;100636.23;;;10.50;66.72
19789;BME280;10054;59.332;18.244;2023-04-29T07:59:59;100632.17;;;10.59;63.55
19789;BME280;10054;59.332;18.244;2023-04-29T08:02:28;100631.03;;;10.70;63.56
19789;BME280;10054;59.332;18.244;2023-04-29T08:04:57;100628.09;;;10.82;62.85
19789;BME280;10054;59.332;18.244;2023-04-29T08:07:27;100623.00;;;10.86;62.58
19789;BME280;10054;59.332;18.244;2023-04-29T08:09:57;100617.64;;;10.80;59.87
19789;BME280;10054;59.332;18.244;2023-04-29T08:12:26;100617.64;;;10.80;59.87
19789;BME280;10054;59.332;18.244;2023-04-29T08:14:55;100625.27;;;10.78;59.64
19789;BME280;10054;59.332;18.244;2023-04-29T08:17:24;100623.78;;;10.74;61.71
19789;BME280;10054;59.332;18.244;2023-04-29T08:19:53;100630.56;;;10.71;61.46
19789;BME280;10054;59.332;18.244;2023-04-29T08:22:22;100619.08;;;10.65;61.19
19789;BME280;10054;59.332;18.244;2023-04-29T08:24:51;100621.72;;;10.58;60.75
19789;BME280;10054;59.332;18.244;2023-04-29T08:27:19;100615.79;;;10.54;61.27
19789;BME280;10054;59.332;18.244;2023-04-29T08:29:48;100621.91;;;10.54;61.85
19789;BME280;10054;59.332;18.244;2023-04-29T08:32:17;100617.39;;;10.57;61.67
19789;BME280;10054;59.332;18.244;2023-04-29T08:34:46;100613.14;;;10.61;58.87
19789;BME280;10054;59.332;18.244;2023-04-29T08:37:15;100614.64;;;10.72;60.01
19789;BME280;10054;59.332;18.244;2023-04-29T08:39:44;100614.89;;;10.89;59.24
19789;BME280;10054;59.332;18.244;2023-04-29T08:42:17;100623.34;;;11.01;58.20
19789;BME280;10054;59.332;18.244;2023-04-29T08:44:47;100620.78;;;11.07;59.04
19789;BME280;10054;59.332;18.244;2023-04-29T08:47:17;100619.73;;;11.09;58.89
19789;BME280;10054;59.332;18.244;2023-04-29T08:49:45;100613.14;;;11.09;58.83
19789;BME280;10054;59.332;18.244;2023-04-29T08:52:14;100604.57;;;11.06;57.97
19789;BME280;10054;59.332;18.244;2023-04-29T08:54:43;100606.27;;;11.07;56.29
19789;BME280;10054;59.332;18.244;2023-04-29T08:57:12;100607.98;;;11.01;57.41
19789;BME280;10054;59.332;18.244;2023-04-29T08:59:42;100605.53;;;10.98;57.31
19789;BME280;10054;59.332;18.244;2023-04-29T09:02:12;100611.78;;;10.90;58.03
19789;BME280;10054;59.332;18.244;2023-04-29T09:05:04;100609.16;;;10.82;58.68
19789;BME280;10054;59.332;18.244;2023-04-29T09:07:31;100603.70;;;10.71;58.48
19789;BME280;10054;59.332;18.244;2023-04-29T09:10:01;100600.04;;;10.67;60.31
19789;BME280;10054;59.332;18.244;2023-04-29T09:12:31;100598.64;;;10.61;59.13
19789;BME280;10054;59.332;18.244;2023-04-29T09:15:00;100600.33;;;10.62;57.98
19789;BME280;10054;59.332;18.244;2023-04-29T09:17:45;100594.39;;;10.66;60.75
19789;BME280;10054;59.332;18.244;2023-04-29T09:22:53;100598.16;;;10.62;62.77
19789;BME280;10054;59.332;18.244;2023-04-29T09:25:22;100585.34;;;10.63;65.85
19789;BME280;10054;59.332;18.244;2023-04-29T09:27:51;100580.06;;;10.70;66.34
19789;BME280;10054;59.332;18.244;2023-04-29T09:30:21;100582.13;;;10.72;64.56
19789;BME280;10054;59.332;18.244;2023-04-29T09:33:09;100573.64;;;10.74;59.64
19789;BME280;10054;59.332;18.244;2023-04-29T09:35:35;100574.86;;;10.75;61.53
19789;BME280;10054;59.332;18.244;2023-04-29T09:38:11;100556.59;;;10.72;60.98
19789;BME280;10054;59.332;18.244;2023-04-29T09:40:42;100556.69;;;10.71;60.82
19789;BME280;10054;59.332;18.244;2023-04-29T09:43:13;100549.70;;;10.77;61.13
19789;BME280;10054;59.332;18.244;2023-04-29T09:45:45;100542.43;;;10.80;59.38
19789;BME280;10054;59.332;18.244;2023-04-29T09:48:14;100535.52;;;10.92;58.35
19789;BME280;10054;59.332;18.244;2023-04-29T09:50:44;100537.00;;;10.96;56.82
19789;BME280;10054;59.332;18.244;2023-04-29T09:53:27;100530.28;;;11.05;55.23
19789;BME280;10054;59.332;18.244;2023-04-29T09:56:00;100512.27;;;11.17;56.54
19789;BME280;10054;59.332;18.244;2023-04-29T09:58:32;100514.41;;;11.25;56.58
19789;BME280;10054;59.332;18.244;2023-04-29T10:01:03;100506.65;;;11.29;55.42
19789;BME280;10054;59.332;18.244;2023-04-29T10:03:33;100509.56;;;11.31;56.58
19789;BME280;10054;59.332;18.244;2023-04-29T10:06:04;100510.26;;;11.40;55.98
19789;BME280;10054;59.332;18.244;2023-04-29T10:08:34;100481.75;;;11.58;56.91
19789;BME280;10054;59.332;18.244;2023-04-29T10:11:03;100481.75;;;11.58;56.91
19789;BME280;10054;59.332;18.244;2023-04-29T10:13:34;100490.14;;;11.70;56.67
19789;BME280;10054;59.332;18.244;2023-04-29T10:18:53;100488.03;;;11.75;54.33
19789;BME280;10054;59.332;18.244;2023-04-29T10:21:29;100488.03;;;11.75;54.33
19789;BME280;10054;59.332;18.244;2023-04-29T10:24:00;100480.69;;;11.73;54.45
19789;BME280;10054;59.332;18.244;2023-04-29T10:26:30;100474.13;;;11.66;54.15
19789;BME280;10054;59.332;18.244;2023-04-29T10:28:59;100485.60;;;11.60;54.37
19789;BME280;10054;59.332;18.244;2023-04-29T10:31:31;100475.14;;;11.58;54.95
19789;BME280;10054;59.332;18.244;2023-04-29T10:34:00;100485.07;;;11.55;54.03
19789;BME280;10054;59.332;18.244;2023-04-29T10:36:30;100468.42;;;11.47;53.41
19789;BME280;10054;59.332;18.244;2023-04-29T10:39:02;100468.42;;;11.47;53.41
19789;BME280;10054;59.332;18.244;2023-04-29T10:41:38;100461.19;;;11.43;53.27
19789;BME280;10054;59.332;18.244;2023-04-29T10:44:06;100473.38;;;11.39;54.93
19789;BME280;10054;59.332;18.244;2023-04-29T10:46:36;100460.70;;;11.31;53.81
19789;BME280;10054;59.332;18.244;2023-04-29T10:49:05;100445.86;;;11.36;52.13
19789;BME280;10054;59.332;18.244;2023-04-29T10:51:39;100445.86;;;11.36;52.13
19789;BME280;10054;59.332;18.244;2023-04-29T10:54:15;100449.61;;;11.39;52.60
19789;BME280;10054;59.332;18.244;2023-04-29T10:56:49;100439.04;;;11.26;51.03
19789;BME280;10054;59.332;18.244;2023-04-29T11:02:03;100439.31;;;11.29;51.26
19789;BME280;10054;59.332;18.244;2023-04-29T11:04:32;100434.92;;;11.22;51.97
19789;BME280;10054;59.332;18.244;2023-04-29T11:07:00;100429.58;;;11.16;52.00
19789;BME280;10054;59.332;18.244;2023-04-29T11:09:30;100422.98;;;11.16;51.91
19789;BME280;10054;59.332;18.244;2023-04-29T11:12:04;100422.98;;;11.16;51.91
19789;BME280;10054;59.332;18.244;2023-04-29T11:14:40;100410.25;;;10.91;50.79
19789;BME280;10054;59.332;18.244;2023-04-29T11:17:12;100410.25;;;10.91;50.79
19789;BME280;10054;59.332;18.244;2023-04-29T11:19:46;100418.10;;;10.85;51.06
19789;BME280;10054;59.332;18.244;2023-04-29T11:22:26;100420.67;;;10.79;50.04
19789;BME280;10054;59.332;18.244;2023-04-29T11:25:02;100420.88;;;10.76;49.97
19789;BME280;10054;59.332;18.244;2023-04-29T11:27:34;100425.41;;;10.74;48.66
19789;BME280;10054;59.332;18.244;2023-04-29T11:30:05;100413.47;;;10.69;47.26
19789;BME280;10054;59.332;18.244;2023-04-29T11:32:39;100413.13;;;10.61;47.59
19789;BME280;10054;59.332;18.244;2023-04-29T11:35:17;100412.69;;;10.54;46.81
19789;BME280;10054;59.332;18.244;2023-04-29T11:37:46;100415.75;;;10.41;45.64
19789;BME280;10054;59.332;18.244;2023-04-29T11:40:15;100399.23;;;10.32;47.27
19789;BME280;10054;59.332;18.244;2023-04-29T11:42:46;100404.89;;;10.33;46.67
19789;BME280;10054;59.332;18.244;2023-04-29T11:45:19;100404.23;;;10.29;47.04
19789;BME280;10054;59.332;18.244;2023-04-29T11:47:48;100405.63;;;10.35;47.57
19789;BME280;10054;59.332;18.244;2023-04-29T11:50:17;100401.38;;;10.39;48.90
19789;BME280;10054;59.332;18.244;2023-04-29T11:52:47;100386.23;;;10.36;47.80
19789;BME280;10054;59.332;18.244;2023-04-29T11:55:18;100407.05;;;10.33;47.06
19789;BME280;10054;59.332;18.244;2023-04-29T11:57:48;100386.37;;;10.20;47.96
19789;BME280;10054;59.332;18.244;2023-04-29T12:00:19;100392.24;;;9.97;44.79
19789;BME280;10054;59.332;18.244;2023-04-29T12:02:48;100376.55;;;9.88;46.24
19789;BME280;10054;59.332;18.244;2023-04-29T12:05:17;100369.67;;;9.85;46.48
19789;BME280;10054;59.332;18.244;2023-04-29T12:07:45;100389.06;;;9.84;47.08
19789;BME280;10054;59.332;18.244;2023-04-29T12:10:16;100390.48;;;9.83;47.47
19789;BME280;10054;59.332;18.244;2023-04-29T12:12:46;100396.13;;;9.84;47.62
19789;BME280;10054;59.332;18.244;2023-04-29T12:15:15;100390.95;;;9.75;47.14
19789;BME280;10054;59.332;18.244;2023-04-29T12:17:44;100387.38;;;9.76;49.14
19789;BME280;10054;59.332;18.244;2023-04-29T12:20:13;100392.47;;;9.72;49.54
19789;BME280;10054;59.332;18.244;2023-04-29T12:22:42;100395.30;;;9.69;50.35
19789;BME280;10054;59.332;18.244;2023-04-29T12:25:11;100400.50;;;9.64;50.33
19789;BME280;10054;59.332;18.244;2023-04-29T12:27:40;100392.52;;;9.58;51.76
19789;BME280;10054;59.332;18.244;2023-04-29T12:30:10;100390.91;;;9.48;52.82
19789;BME280;10054;59.332;18.244;2023-04-29T12:32:39;100395.52;;;9.45;53.72
19789;BME280;10054;59.332;18.244;2023-04-29T12:35:16;100389.87;;;9.37;54.01
19789;BME280;10054;59.332;18.244;2023-04-29T12:37:49;100388.66;;;9.35;54.94
19789;BME280;10054;59.332;18.244;2023-04-29T12:40:18;100384.52;;;9.31;55.73
19789;BME280;10054;59.332;18.244;2023-04-29T12:42:47;100400.02;;;9.29;56.29
19789;BME280;10054;59.332;18.244;2023-04-29T12:45:31;100397.48;;;9.27;57.14
19789;BME280;10054;59.332;18.244;2023-04-29T12:48:01;100381.50;;;9.23;57.47
19789;BME280;10054;59.332;18.244;2023-04-29T12:50:37;100381.22;;;9.20;58.33
19789;BME280;10054;59.332;18.244;2023-04-29T12:53:06;100371.54;;;9.21;58.97
19789;BME280;10054;59.332;18.244;2023-04-29T12:55:36;100371.73;;;9.25;59.10
19789;BME280;10054;59.332;18.244;2023-04-29T12:58:06;100368.06;;;9.28;59.80
19789;BME280;10054;59.332;18.244;2023-04-29T13:00:35;100363.45;;;9.31;60.04
19789;BME280;10054;59.332;18.244;2023-04-29T13:03:04;100359.60;;;9.37;60.29
19789;BME280;10054;59.332;18.244;2023-04-29T13:05:33;100357.91;;;9.43;60.41
19789;BME280;10054;59.332;18.244;2023-04-29T13:08:02;100353.67;;;9.54;60.73
19789;BME280;10054;59.332;18.244;2023-04-29T13:10:34;100345.44;;;9.66;60.05
19789;BME280;10054;59.332;18.244;2023-04-29T13:13:03;100344.09;;;9.80;59.77
19789;BME280;10054;59.332;18.244;2023-04-29T13:15:32;100335.61;;;9.89;59.57
19789;BME280;10054;59.332;18.244;2023-04-29T13:18:01;100330.31;;;9.97;59.41